createdAt,value
2019-03-03T00:01:31.818Z,100142.56
2019-03-03T00:04:39.015Z,100147.20
2019-03-03T00:07:46.374Z,100144.64
2019-03-03T00:10:53.668Z,100150.38
2019-03-03T00:14:00.818Z,100150.81
2019-03-03T00:17:07.952Z,100151.66
2019-03-03T00:20:15.420Z,100153.56
2019-03-03T00:23:22.568Z,100154.50
2019-03-03T00:26:29.914Z,100166.02
2019-03-03T00:29:37.109Z,100158.03
2019-03-03T00:32:44.128Z,100166.50
2019-03-03T00:35:51.409Z,100160.81
2019-03-03T00:39:07.002Z,100143.98
2019-03-03T00:42:36.251Z,100145.56
2019-03-03T00:45:58.376Z,100141.84
2019-03-03T00:49:42.018Z,100138.58
2019-03-03T00:52:54.676Z,100136.62
2019-03-03T00:56:10.943Z,100134.41
2019-03-03T00:59:23.652Z,100127.99
2019-03-03T01:02:38.599Z,100116.91
2019-03-03T01:06:07.998Z,100113.14
2019-03-03T01:09:42.564Z,100108.93
2019-03-03T01:13:00.125Z,100104.30
2019-03-03T01:16:23.967Z,100095.77
2019-03-03T01:19:38.743Z,100101.39
2019-03-03T01:23:05.034Z,100093.55
2019-03-03T01:26:12.357Z,100089.36
2019-03-03T01:29:19.512Z,100102.56
2019-03-03T01:32:26.726Z,100089.98
2019-03-03T01:35:33.964Z,100081.34
2019-03-03T01:38:41.283Z,100074.64
2019-03-03T01:41:48.443Z,100073.06
2019-03-03T01:44:55.582Z,100065.09
2019-03-03T01:48:02.977Z,100059.12
2019-03-03T01:51:10.226Z,100051.62
2019-03-03T01:54:17.370Z,100047.52
2019-03-03T01:57:24.605Z,100041.72
2019-03-03T02:00:31.871Z,100024.18
2019-03-03T02:03:39.059Z,100027.35
2019-03-03T02:06:47.038Z,100017.73
2019-03-03T02:10:03.699Z,100010.48
2019-03-03T02:13:11.070Z,100014.64
2019-03-03T02:16:27.880Z,99988.81
2019-03-03T02:19:44.448Z,99989.88
2019-03-03T02:22:51.684Z,99982.20
2019-03-03T02:25:58.901Z,99980.30
2019-03-03T02:29:07.283Z,99971.01
2019-03-03T02:32:14.483Z,99969.62
2019-03-03T02:35:21.687Z,99971.78
2019-03-03T02:38:28.816Z,99957.47
2019-03-03T02:41:36.078Z,99964.02
2019-03-03T02:44:43.304Z,99962.92
2019-03-03T02:47:50.512Z,99955.70
2019-03-03T02:50:57.736Z,99947.95
2019-03-03T02:54:05.312Z,99939.42
2019-03-03T02:57:12.711Z,99931.44
2019-03-03T03:00:29.364Z,99926.88
2019-03-03T03:03:52.729Z,99926.59
2019-03-03T03:07:16.550Z,99911.44
2019-03-03T03:10:45.472Z,99907.11
2019-03-03T03:14:30.691Z,99902.30
2019-03-03T03:17:55.900Z,99895.98
2019-03-03T03:21:24.975Z,99890.03
2019-03-03T03:24:42.391Z,99896.23
2019-03-03T03:28:07.252Z,99889.44
2019-03-03T03:31:37.716Z,99879.80
2019-03-03T03:35:06.749Z,99878.02
2019-03-03T03:38:38.958Z,99882.95
2019-03-03T03:41:57.623Z,99876.92
2019-03-03T03:45:57.335Z,99862.91
2019-03-03T03:49:22.613Z,99862.11
2019-03-03T03:52:48.726Z,99845.28
2019-03-03T03:56:08.679Z,99864.21
2019-03-03T03:59:41.158Z,99854.97
2019-03-03T04:03:01.806Z,99858.85
2019-03-03T04:06:25.032Z,99858.13
2019-03-03T04:09:49.534Z,99836.77
2019-03-03T04:13:14.580Z,99831.59
2019-03-03T04:16:44.150Z,99828.34
2019-03-03T04:20:06.296Z,99809.55
2019-03-03T04:23:58.831Z,99824.23
2019-03-03T04:27:27.833Z,99809.83
2019-03-03T04:30:58.423Z,99804.25
2019-03-03T04:34:24.399Z,99802.51
2019-03-03T04:37:43.087Z,99789.70
2019-03-03T04:40:56.901Z,99790.70
2019-03-03T04:44:11.818Z,99785.09
2019-03-03T04:47:35.244Z,99770.34
2019-03-03T04:51:00.052Z,99791.38
2019-03-03T04:54:35.556Z,99772.72
2019-03-03T04:58:04.586Z,99765.58
2019-03-03T05:01:48.744Z,99757.52
2019-03-03T05:05:02.874Z,99763.20
2019-03-03T05:08:34.370Z,99754.41
2019-03-03T05:12:37.962Z,99755.58
2019-03-03T05:16:29.840Z,99751.92
2019-03-03T05:20:00.365Z,99749.15
2019-03-03T05:23:07.590Z,99743.39
2019-03-03T05:26:14.799Z,99744.21
2019-03-03T05:29:21.910Z,99736.04
2019-03-03T05:32:29.193Z,99743.02
2019-03-03T05:35:36.372Z,99729.36
2019-03-03T05:38:43.562Z,99747.69
2019-03-03T05:41:50.701Z,99732.23
2019-03-03T05:44:58.121Z,99725.40
2019-03-03T05:48:05.288Z,99728.96
2019-03-03T05:51:12.589Z,99735.30
2019-03-03T05:54:29.242Z,99731.31
2019-03-03T05:57:36.446Z,99720.06
2019-03-03T06:00:43.571Z,99732.40
2019-03-03T06:03:50.865Z,99730.02
2019-03-03T06:06:58.023Z,99734.05
2019-03-03T06:10:05.719Z,99728.92
2019-03-03T06:13:22.116Z,99721.80
2019-03-03T06:16:29.299Z,99722.62
2019-03-03T06:19:36.418Z,99719.59
2019-03-03T06:22:43.649Z,99707.41
2019-03-03T06:25:50.779Z,99716.76
2019-03-03T06:28:58.015Z,99712.37
2019-03-03T06:32:05.281Z,99723.43
2019-03-03T06:35:12.871Z,99737.97
2019-03-03T06:38:29.263Z,99725.53
2019-03-03T06:41:46.044Z,99731.80
2019-03-03T06:45:02.731Z,99722.62
2019-03-03T06:48:09.996Z,99728.59
2019-03-03T06:51:17.212Z,99729.14
2019-03-03T06:54:33.993Z,99723.62
2019-03-03T06:57:50.823Z,99728.32
2019-03-03T07:00:58.011Z,99724.90
2019-03-03T07:04:05.215Z,99721.88
2019-03-03T07:07:21.876Z,99712.74
2019-03-03T07:10:29.002Z,99722.34
2019-03-03T07:13:36.222Z,99722.20
2019-03-03T07:16:43.348Z,99717.73
2019-03-03T07:19:50.473Z,99727.97
2019-03-03T07:22:57.702Z,99741.26
2019-03-03T07:26:05.077Z,99728.83
2019-03-03T07:29:12.340Z,99747.53
2019-03-03T07:32:29.112Z,99742.73
2019-03-03T07:35:59.697Z,99737.52
2019-03-03T07:39:16.299Z,99761.19
2019-03-03T07:42:23.518Z,99743.23
2019-03-03T07:45:30.738Z,99755.74
2019-03-03T07:48:37.958Z,99742.18
2019-03-03T07:51:45.295Z,99750.04
2019-03-03T07:54:52.833Z,99745.28
2019-03-03T07:58:09.243Z,99742.64
2019-03-03T08:01:25.935Z,99746.15
2019-03-03T08:04:33.527Z,99748.34
2019-03-03T08:07:49.899Z,99747.06
2019-03-03T08:10:57.318Z,99739.16
2019-03-03T08:14:13.971Z,99737.32
2019-03-03T08:17:30.767Z,99728.59
2019-03-03T08:20:38.083Z,99728.32
2019-03-03T08:24:01.153Z,99718.39
2019-03-03T08:27:17.408Z,99734.58
2019-03-03T08:30:24.954Z,99732.16
2019-03-03T08:33:41.455Z,99748.38
2019-03-03T08:36:48.656Z,99744.91
2019-03-03T08:39:55.909Z,99754.45
2019-03-03T08:43:11.292Z,99741.80
2019-03-03T08:46:47.958Z,99742.29
2019-03-03T08:50:19.603Z,99746.86
2019-03-03T08:53:51.963Z,99744.00
2019-03-03T08:57:18.279Z,99737.35
2019-03-03T09:00:44.494Z,99749.97
2019-03-03T09:04:19.460Z,99752.66
2019-03-03T09:07:35.560Z,99761.62
2019-03-03T09:11:24.668Z,99758.75
2019-03-03T09:14:47.043Z,99768.66
2019-03-03T09:18:04.134Z,99776.59
2019-03-03T09:21:33.238Z,99774.80
2019-03-03T09:25:07.868Z,99766.10
2019-03-03T09:28:25.771Z,99763.41
2019-03-03T09:32:11.425Z,99749.79
2019-03-03T09:36:00.956Z,99767.93
2019-03-03T09:39:26.157Z,99768.54
2019-03-03T09:43:06.153Z,99784.86
2019-03-03T09:46:32.279Z,99765.73
2019-03-03T09:50:07.483Z,99756.95
2019-03-03T09:53:31.374Z,99765.28
2019-03-03T09:57:09.759Z,99780.49
2019-03-03T10:00:34.440Z,99764.58
2019-03-03T10:03:47.278Z,99764.39
2019-03-03T10:07:23.867Z,99764.12
2019-03-03T10:10:46.282Z,99769.33
2019-03-03T10:14:21.733Z,99767.80
2019-03-03T10:17:41.306Z,99783.36
2019-03-03T10:21:03.649Z,99778.84
2019-03-03T10:24:44.655Z,99779.30
2019-03-03T10:28:16.390Z,99779.30
2019-03-03T10:31:47.883Z,99789.70
2019-03-03T10:35:16.450Z,99777.99
2019-03-03T10:39:02.840Z,99779.58
2019-03-03T10:42:27.850Z,99774.55
2019-03-03T10:46:00.078Z,99773.36
2019-03-03T10:49:23.410Z,99777.02
2019-03-03T10:52:55.242Z,99781.16
2019-03-03T10:56:37.245Z,99784.02
2019-03-03T10:59:55.145Z,99778.97
2019-03-03T11:03:34.948Z,99779.34
2019-03-03T11:07:00.864Z,99789.03
2019-03-03T11:10:27.757Z,99797.66
2019-03-03T11:14:19.616Z,99792.17
2019-03-03T11:17:35.230Z,99777.89
2019-03-03T11:21:07.760Z,99779.80
2019-03-03T11:25:06.442Z,99778.89
2019-03-03T11:28:31.606Z,99783.20
2019-03-03T11:31:57.465Z,99792.98
2019-03-03T11:35:47.065Z,99789.39
2019-03-03T11:39:22.495Z,99798.70
2019-03-03T11:42:38.014Z,99794.98
2019-03-03T11:46:22.788Z,99788.08
2019-03-03T11:50:21.413Z,99783.56
2019-03-03T11:53:46.387Z,99780.91
2019-03-03T11:56:59.302Z,99774.05
2019-03-03T12:00:35.381Z,99778.16
2019-03-03T12:04:07.707Z,99776.40
2019-03-03T12:07:53.834Z,99771.63
2019-03-03T12:11:26.311Z,99772.23
2019-03-03T12:14:45.652Z,99777.81
2019-03-03T12:18:02.838Z,99775.55
2019-03-03T12:21:18.056Z,99775.28
2019-03-03T12:24:31.052Z,99774.94
2019-03-03T12:28:17.534Z,99771.94
2019-03-03T12:31:50.793Z,99772.64
2019-03-03T12:35:37.906Z,99761.94
2019-03-03T12:39:13.970Z,99761.23
2019-03-03T12:42:35.670Z,99760.34
2019-03-03T12:46:07.806Z,99763.05
2019-03-03T12:49:56.752Z,99752.19
2019-03-03T12:53:23.090Z,99751.82
2019-03-03T12:56:47.746Z,99756.48
2019-03-03T13:00:13.942Z,99753.55
2019-03-03T13:03:40.166Z,99748.72
2019-03-03T13:07:21.424Z,99746.69
2019-03-03T13:10:37.770Z,99735.08
2019-03-03T13:14:06.814Z,99735.15
2019-03-03T13:17:48.114Z,99727.72
2019-03-03T13:21:13.653Z,99729.73
2019-03-03T13:24:50.734Z,99724.44
2019-03-03T13:28:16.943Z,99716.72
2019-03-03T13:31:40.491Z,99720.22
2019-03-03T13:35:20.794Z,99715.62
2019-03-03T13:39:04.044Z,99711.22
2019-03-03T13:42:46.585Z,99706.66
2019-03-03T13:45:53.887Z,99705.53
2019-03-03T13:49:01.425Z,99697.88
2019-03-03T13:52:08.662Z,99697.48
2019-03-03T13:55:16.228Z,99699.69
2019-03-03T13:58:23.424Z,99689.63
2019-03-03T14:01:30.635Z,99691.27
2019-03-03T14:04:38.037Z,99687.06
2019-03-03T14:07:45.304Z,99683.31
2019-03-03T14:11:02.052Z,99683.11
2019-03-03T14:14:18.743Z,99689.06
2019-03-03T14:17:26.015Z,99677.00
2019-03-03T14:20:33.279Z,99674.70
2019-03-03T14:23:50.303Z,99666.64
2019-03-03T14:27:10.491Z,99667.99
2019-03-03T14:30:25.870Z,99655.73
2019-03-03T14:33:33.096Z,99655.56
2019-03-03T14:36:40.282Z,99652.94
2019-03-03T14:39:47.501Z,99651.06
2019-03-03T14:42:54.663Z,99652.18
2019-03-03T14:46:02.047Z,99642.22
2019-03-03T14:49:09.243Z,99644.42
2019-03-03T14:52:16.449Z,99645.15
2019-03-03T14:55:23.629Z,99640.94
2019-03-03T14:58:30.835Z,99632.33
2019-03-03T15:01:38.050Z,99627.47
2019-03-03T15:04:45.294Z,99621.19
2019-03-03T15:07:52.847Z,99621.81
2019-03-03T15:11:00.232Z,99616.39
2019-03-03T15:14:08.000Z,99607.05
2019-03-03T15:17:15.184Z,99603.77
2019-03-03T15:20:31.531Z,99595.52
2019-03-03T15:23:48.142Z,99599.92
2019-03-03T15:26:55.443Z,99591.35
2019-03-03T15:30:14.077Z,99578.90
2019-03-03T15:33:30.679Z,99578.43
2019-03-03T15:36:47.336Z,99581.87
2019-03-03T15:39:53.580Z,99578.96
2019-03-03T15:43:00.903Z,99575.68
2019-03-03T15:46:08.169Z,99575.25
2019-03-03T15:49:15.368Z,99570.19
2019-03-03T15:52:22.664Z,99557.56
2019-03-03T15:55:30.281Z,99564.70
2019-03-03T15:58:37.682Z,99546.86
2019-03-03T16:01:44.872Z,99567.20
2019-03-03T16:04:51.995Z,99535.89
2019-03-03T16:07:59.204Z,99555.88
2019-03-03T16:11:06.603Z,99546.70
2019-03-03T16:14:23.276Z,99534.26
2019-03-03T16:17:30.556Z,99552.59
2019-03-03T16:20:37.819Z,99531.34
2019-03-03T16:23:45.005Z,99520.56
2019-03-03T16:27:01.710Z,99504.11
2019-03-03T16:30:11.669Z,99515.64
2019-03-03T16:33:20.876Z,99504.47
2019-03-03T16:36:28.232Z,99503.39
2019-03-03T16:39:34.830Z,99509.44
2019-03-03T16:42:42.125Z,99497.55
2019-03-03T16:45:49.358Z,99487.95
2019-03-03T16:48:56.563Z,99489.30
2019-03-03T16:52:03.957Z,99488.13
2019-03-03T16:55:11.815Z,99476.23
2019-03-03T16:58:28.124Z,99471.38
2019-03-03T17:01:44.831Z,99466.71
2019-03-03T17:05:02.834Z,99461.79
2019-03-03T17:08:09.978Z,99461.89
2019-03-03T17:11:17.272Z,99462.05
2019-03-03T17:14:24.494Z,99460.47
2019-03-03T17:17:31.620Z,99447.75
2019-03-03T17:20:39.036Z,99444.17
2019-03-03T17:23:46.413Z,99437.77
2019-03-03T17:26:53.720Z,99425.90
2019-03-03T17:30:01.339Z,99424.80
2019-03-03T17:33:08.704Z,99422.44
2019-03-03T17:36:15.891Z,99419.87
2019-03-03T17:39:23.134Z,99415.25
2019-03-03T17:42:30.308Z,99409.97
2019-03-03T17:45:37.624Z,99403.70
2019-03-03T17:48:44.732Z,99408.33
2019-03-03T17:51:51.921Z,99411.19
2019-03-03T17:54:59.287Z,99392.63
2019-03-03T17:58:06.640Z,99391.95
2019-03-03T18:01:13.976Z,99392.84
2019-03-03T18:04:21.357Z,99391.13
2019-03-03T18:07:28.606Z,99383.91
2019-03-03T18:10:35.850Z,99381.61
2019-03-03T18:13:43.039Z,99376.42
2019-03-03T18:16:50.614Z,99381.91
2019-03-03T18:20:08.275Z,99368.11
2019-03-03T18:23:15.612Z,99376.52
2019-03-03T18:26:22.849Z,99350.73
2019-03-03T18:29:29.960Z,99359.70
2019-03-03T18:32:37.163Z,99357.25
2019-03-03T18:35:44.412Z,99357.61
2019-03-03T18:38:51.663Z,99369.08
2019-03-03T18:41:58.914Z,99345.80
2019-03-03T18:45:07.996Z,99340.11
2019-03-03T18:48:15.272Z,99330.86
2019-03-03T18:51:23.207Z,99334.88
2019-03-03T18:54:30.537Z,99333.95
2019-03-03T18:57:37.799Z,99342.84
2019-03-03T19:00:45.291Z,99315.94
2019-03-03T19:03:50.976Z,99311.84
2019-03-03T19:06:58.431Z,99309.23
2019-03-03T19:10:07.650Z,99313.73
2019-03-03T19:13:24.779Z,99326.16
2019-03-03T19:16:33.439Z,99317.57
2019-03-03T19:19:41.294Z,99317.95
2019-03-03T19:22:49.474Z,99305.21
2019-03-03T19:25:57.138Z,99298.55
2019-03-03T19:29:05.066Z,99304.50
2019-03-03T19:32:21.539Z,99300.08
2019-03-03T19:35:38.629Z,99301.67
2019-03-03T19:38:55.232Z,99315.28
2019-03-03T19:42:11.982Z,99293.98
2019-03-03T19:45:21.328Z,99292.20
2019-03-03T19:48:28.658Z,99282.81
2019-03-03T19:51:36.204Z,99280.77
2019-03-03T19:54:43.406Z,99288.27
2019-03-03T19:57:50.792Z,99262.76
2019-03-03T20:00:58.154Z,99274.44
2019-03-03T20:04:05.516Z,99284.29
2019-03-03T20:07:12.877Z,99273.94
2019-03-03T20:10:29.707Z,99266.47
2019-03-03T20:13:36.356Z,99279.27
2019-03-03T20:16:43.674Z,99263.00
2019-03-03T20:19:50.984Z,99263.17
2019-03-03T20:22:58.179Z,99281.88
2019-03-03T20:26:05.872Z,99260.69
2019-03-03T20:29:28.306Z,99265.64
2019-03-03T20:32:33.831Z,99258.86
2019-03-03T20:35:41.153Z,99262.70
2019-03-03T20:38:48.301Z,99248.89
2019-03-03T20:41:55.904Z,99268.77
2019-03-03T20:45:03.849Z,99250.81
2019-03-03T20:48:11.086Z,99250.64
2019-03-03T20:51:18.240Z,99253.84
2019-03-03T20:54:25.417Z,99266.61
2019-03-03T20:57:32.607Z,99251.27
2019-03-03T21:00:39.826Z,99249.36
2019-03-03T21:03:47.032Z,99246.45
2019-03-03T21:06:54.353Z,99235.94
2019-03-03T21:10:01.666Z,99238.28
2019-03-03T21:13:08.899Z,99216.87
2019-03-03T21:16:16.100Z,99222.06
2019-03-03T21:19:23.346Z,99221.43
2019-03-03T21:22:30.480Z,99209.42
2019-03-03T21:25:37.808Z,99202.06
2019-03-03T21:28:45.010Z,99205.09
2019-03-03T21:31:52.210Z,99195.78
2019-03-03T21:34:59.413Z,99201.71
2019-03-03T21:38:06.538Z,99203.64
2019-03-03T21:41:13.789Z,99184.58
2019-03-03T21:44:30.761Z,99169.68
2019-03-03T21:47:37.902Z,99169.03
2019-03-03T21:50:45.110Z,99163.27
2019-03-03T21:54:01.820Z,99153.83
2019-03-03T21:57:09.042Z,99159.18
2019-03-03T22:00:27.203Z,99144.03
2019-03-03T22:03:34.569Z,99137.55
2019-03-03T22:06:41.681Z,99138.67
2019-03-03T22:09:48.928Z,99131.91
2019-03-03T22:12:56.149Z,99134.30
2019-03-03T22:16:03.460Z,99132.19
2019-03-03T22:19:10.679Z,99135.11
2019-03-03T22:22:17.803Z,99126.78
2019-03-03T22:25:25.091Z,99117.05
2019-03-03T22:28:32.470Z,99117.25
2019-03-03T22:31:49.080Z,99109.47
2019-03-03T22:35:06.131Z,99109.81
2019-03-03T22:38:22.566Z,99111.55
2019-03-03T22:41:29.766Z,99108.55
2019-03-03T22:44:46.818Z,99108.19
2019-03-03T22:48:03.511Z,99107.06
2019-03-03T22:51:20.071Z,99096.88
2019-03-03T22:54:27.471Z,99099.44
2019-03-03T22:57:44.137Z,99079.09
2019-03-03T23:01:10.149Z,99093.44
2019-03-03T23:04:34.880Z,99072.75
2019-03-03T23:07:58.971Z,99083.06
2019-03-03T23:12:15.300Z,99069.84
2019-03-03T23:15:59.423Z,99060.75
2019-03-03T23:19:58.856Z,99051.03
2019-03-03T23:24:05.022Z,99044.09
2019-03-03T23:27:12.141Z,99045.26
2019-03-03T23:30:19.343Z,99041.83
2019-03-03T23:33:25.895Z,99032.05
2019-03-03T23:36:33.184Z,99018.87
2019-03-03T23:39:40.299Z,99024.75
2019-03-03T23:42:47.502Z,99019.47
2019-03-03T23:45:54.758Z,99025.15
2019-03-03T23:49:01.884Z,99019.59
2019-03-03T23:52:09.085Z,99001.17
2019-03-03T23:55:16.800Z,99009.58
2019-03-03T23:58:24.013Z,99005.33
